Time;durP1;ratioP1;P1;durP2;ratioP2;P2;SDS_P1;SDS_P2;PMS_P1;PMS_P2;Temp;Humidity;BMP_temperature;BMP_pressure;BME280_temperature;BME280_humidity;BME280_pressure;Samples;Min_cycle;Max_cycle;Signal;HPM_P1;HPM_P2
2022/09/10 00:01:37;;;;;;;15.63;9.88;;;14.90;99.90;;;;;;5091400;28;20112;-57
2022/09/10 00:04:06;;;;;;;11.10;9.90;;;15.00;99.90;;;;;;5089289;28;20040;-57
2022/09/10 00:06:34;;;;;;;16.73;11.25;;;15.00;99.90;;;;;;5076052;28;20131;-56
2022/09/10 00:09:00;;;;;;;12.65;10.88;;;15.00;99.90;;;;;;5070010;28;20048;-58
2022/09/10 00:11:29;;;;;;;14.43;10.15;;;15.00;99.90;;;;;;5080320;28;20071;-58
2022/09/10 00:13:56;;;;;;;12.23;11.15;;;15.00;99.90;;;;;;5071625;28;20075;-57
2022/09/10 00:16:21;;;;;;;;;;;15.10;99.90;;;;;;5087845;28;20051;-56
2022/09/10 00:18:47;;;;;;;14.90;11.80;;;15.00;99.90;;;;;;5091445;28;19916;-56
2022/09/10 00:21:16;;;;;;;14.65;10.82;;;15.00;99.90;;;;;;5094470;28;20043;-56
2022/09/10 00:23:45;;;;;;;13.93;11.60;;;15.00;99.90;;;;;;5092458;28;20352;-58
2022/09/10 00:26:15;;;;;;;12.27;10.95;;;15.00;99.90;;;;;;5084627;28;20088;-59
2022/09/10 00:28:41;;;;;;;16.20;11.73;;;15.00;99.90;;;;;;5093144;28;20085;-58
2022/09/10 00:31:07;;;;;;;15.73;12.50;;;15.00;99.90;;;;;;5074138;28;20036;-58
2022/09/10 00:33:32;;;;;;;14.00;12.60;;;15.00;99.90;;;;;;5092899;28;20459;-58
2022/09/10 00:35:58;;;;;;;13.63;12.32;;;15.00;99.90;;;;;;5092107;28;20485;-60
2022/09/10 00:38:24;;;;;;;14.55;12.52;;;15.00;99.90;;;;;;5092600;28;20036;-58
2022/09/10 00:40:49;;;;;;;15.52;12.65;;;15.00;99.90;;;;;;5092711;28;20560;-59
2022/09/10 00:43:19;;;;;;;16.92;12.45;;;15.00;99.90;;;;;;5093684;28;20531;-57
2022/09/10 00:45:51;;;;;;;13.13;11.55;;;15.00;99.90;;;;;;5091450;28;20032;-59
2022/09/10 00:48:21;;;;;;;15.30;13.15;;;15.00;99.90;;;;;;5091622;28;20044;-59
2022/09/10 00:50:50;;;;;;;17.08;12.25;;;15.00;99.90;;;;;;5077076;28;20036;-57
2022/09/10 00:53:20;;;;;;;16.50;13.15;;;15.00;99.90;;;;;;5082878;28;20134;-59
2022/09/10 00:55:49;;;;;;;15.27;12.60;;;15.00;99.90;;;;;;5091910;28;20036;-59
2022/09/10 00:58:17;;;;;;;17.23;13.32;;;15.00;99.90;;;;;;5076217;28;20055;-59
2022/09/10 01:00:43;;;;;;;19.95;12.75;;;15.00;99.90;;;;;;5071053;28;20056;-59
2022/09/10 01:03:11;;;;;;;15.30;13.20;;;15.00;99.90;;;;;;5079096;28;20113;-59
2022/09/10 01:05:41;;;;;;;15.68;12.35;;;15.00;99.90;;;;;;5112389;28;20389;-57
2022/09/10 01:08:11;;;;;;;18.20;13.52;;;15.00;99.90;;;;;;5101125;28;20390;-57
2022/09/10 01:11:03;;;;;;;14.20;11.70;;;15.00;99.90;;;;;;5092557;28;20032;-59
2022/09/10 01:13:53;;;;;;;15.45;12.20;;;15.00;99.90;;;;;;5073790;28;20048;-58
2022/09/10 01:16:51;;;;;;;12.85;11.52;;;15.00;99.90;;;;;;5092514;28;20545;-58
2022/09/10 01:19:57;;;;;;;14.23;12.70;;;15.10;99.90;;;;;;5075848;28;20044;-58
2022/09/10 01:22:35;;;;;;;21.60;14.02;;;15.10;99.90;;;;;;5071472;28;20055;-59
2022/09/10 01:25:34;;;;;;;14.95;12.75;;;15.10;99.90;;;;;;5091920;28;20036;-58
2022/09/10 01:28:06;;;;;;;13.13;11.80;;;15.10;99.90;;;;;;5091236;28;20377;-56
2022/09/10 01:30:45;;;;;;;16.05;12.20;;;15.10;99.90;;;;;;5089813;28;20381;-58
2022/09/10 01:33:25;;;;;;;19.42;12.07;;;15.10;99.90;;;;;;5073125;28;20040;-58
2022/09/10 01:35:53;;;;;;;15.70;12.95;;;15.10;99.90;;;;;;5088842;28;20516;-57
2022/09/10 01:38:31;;;;;;;19.42;12.40;;;15.10;99.90;;;;;;5073150;28;20043;-58
2022/09/10 01:40:57;;;;;;;17.77;12.73;;;15.10;99.90;;;;;;5091388;28;20043;-54
2022/09/10 01:43:23;;;;;;;14.27;12.60;;;15.10;99.90;;;;;;5098576;28;20054;-56
2022/09/10 01:46:12;;;;;;;17.38;14.02;;;15.10;99.90;;;;;;5110346;28;20074;-59
2022/09/10 01:49:04;;;;;;;15.40;13.80;;;15.20;99.90;;;;;;5110283;28;20043;-59
2022/09/10 01:51:55;;;;;;;20.50;13.00;;;15.10;99.90;;;;;;5070831;28;20047;-58
2022/09/10 01:54:35;;;;;;;16.17;13.63;;;15.10;99.90;;;;;;5069703;28;20048;-58
2022/09/10 01:57:08;;;;;;;14.90;13.40;;;15.10;99.90;;;;;;5086971;28;20507;-59
2022/09/10 01:59:53;;;;;;;21.52;14.40;;;15.10;99.90;;;;;;5090219;28;20036;-59
2022/09/10 02:02:28;;;;;;;16.17;13.10;;;15.10;99.90;;;;;;5091514;28;20059;-57
2022/09/10 02:04:55;;;;;;;18.80;14.55;;;15.00;99.90;;;;;;5105119;28;20122;-58
2022/09/10 02:07:22;;;;;;;20.08;14.13;;;15.10;99.90;;;;;;5110162;28;20124;-58
2022/09/10 02:09:49;;;;;;;19.67;15.10;;;15.10;99.90;;;;;;5103494;28;20036;-59
2022/09/10 02:12:19;;;;;;;21.10;15.93;;;15.10;99.90;;;;;;5070352;28;20040;-57
2022/09/10 02:14:54;;;;;;;19.45;15.00;;;15.10;99.90;;;;;;5075234;28;20190;-57
2022/09/10 02:17:22;;;;;;;22.52;15.77;;;15.10;99.90;;;;;;5103215;28;20039;-55
2022/09/10 02:19:50;;;;;;;24.98;16.45;;;15.10;99.90;;;;;;5091431;28;20051;-57
2022/09/10 02:22:17;;;;;;;25.15;16.17;;;15.10;99.90;;;;;;5071926;28;20047;-58
2022/09/10 02:24:45;;;;;;;21.92;15.82;;;15.10;99.90;;;;;;5069764;28;20493;-57
2022/09/10 02:27:11;;;;;;;22.77;15.20;;;15.10;99.90;;;;;;5077463;28;20039;-57
2022/09/10 02:29:38;;;;;;;20.40;15.00;;;15.10;99.90;;;;;;5089497;28;20536;-58
2022/09/10 02:32:05;;;;;;;17.92;15.55;;;15.10;99.90;;;;;;5079368;28;20037;-59
2022/09/10 02:34:31;;;;;;;19.85;14.60;;;15.10;99.90;;;;;;5070075;28;20048;-58
2022/09/10 02:36:57;;;;;;;20.08;13.68;;;15.10;99.90;;;;;;5070526;28;20055;-57
2022/09/10 02:39:23;;;;;;;19.75;14.73;;;15.10;99.90;;;;;;5090219;28;20400;-59
2022/09/10 02:41:49;;;;;;;;;;;15.10;99.90;;;;;;5079084;28;20094;-58
2022/09/10 02:44:14;;;;;;;20.40;14.27;;;15.10;99.90;;;;;;5090496;28;20337;-55
2022/09/10 02:46:40;;;;;;;21.08;13.73;;;15.10;99.90;;;;;;5090637;28;20040;-59
2022/09/10 02:49:06;;;;;;;15.45;13.82;;;15.10;99.90;;;;;;5091388;28;20039;-58
2022/09/10 02:51:32;;;;;;;18.50;13.73;;;15.10;99.90;;;;;;5090402;28;20043;-57
2022/09/10 02:53:57;;;;;;;19.25;13.38;;;15.10;99.90;;;;;;5087398;28;20036;-58
2022/09/10 02:56:23;;;;;;;20.02;13.90;;;15.10;99.90;;;;;;5090617;28;20382;-57
2022/09/10 02:58:51;;;;;;;21.35;14.43;;;15.10;99.90;;;;;;5090977;28;20101;-55
2022/09/10 03:01:19;;;;;;;20.33;14.25;;;15.10;99.90;;;;;;5088486;28;20512;-56
2022/09/10 03:03:53;;;;;;;15.32;13.80;;;15.10;99.90;;;;;;5088958;28;20040;-57
2022/09/10 03:06:21;;;;;;;20.88;14.85;;;15.10;99.90;;;;;;5090454;28;20097;-57
2022/09/10 03:08:47;;;;;;;22.35;14.40;;;15.10;99.90;;;;;;5090260;28;20459;-58
2022/09/10 03:11:14;;;;;;;;;;;15.10;99.90;;;;;;5091737;28;20040;-56
2022/09/10 03:13:39;;;;;;;19.83;13.98;;;15.20;99.90;;;;;;5089063;28;20010;-58
2022/09/10 03:16:05;;;;;;;22.25;14.68;;;15.20;99.90;;;;;;5089932;28;20485;-57
2022/09/10 03:18:31;;;;;;;27.92;16.83;;;15.20;99.90;;;;;;5085923;28;20032;-56
2022/09/10 03:21:12;;;;;;;23.90;16.10;;;15.20;99.90;;;;;;5083888;28;20093;-58
2022/09/10 03:23:38;;;;;;;22.73;16.55;;;15.20;99.90;;;;;;5082485;28;20036;-55
2022/09/10 03:26:04;;;;;;;19.10;16.02;;;15.20;99.90;;;;;;5083554;28;20047;-56
2022/09/10 03:28:31;;;;;;;27.92;17.50;;;15.20;99.90;;;;;;5090113;28;20442;-56
2022/09/10 03:30:57;;;;;;;25.88;16.25;;;15.20;99.90;;;;;;5089762;28;20485;-57
2022/09/10 03:33:23;;;;;;;20.63;16.83;;;15.20;99.90;;;;;;5088765;28;20047;-58
2022/09/10 03:35:48;;;;;;;21.30;16.77;;;15.20;99.90;;;;;;5070709;28;20135;-58
2022/09/10 03:38:14;;;;;;;27.75;17.20;;;15.10;99.90;;;;;;5069648;28;20040;-57
2022/09/10 03:40:40;;;;;;;22.17;18.35;;;15.20;99.90;;;;;;5076349;28;20126;-57
2022/09/10 03:43:05;;;;;;;29.35;18.33;;;15.20;99.90;;;;;;5089625;28;20488;-56
2022/09/10 03:45:31;;;;;;;26.60;17.90;;;15.20;99.90;;;;;;5089137;28;20036;-57
2022/09/10 03:47:58;;;;;;;31.35;19.05;;;15.20;99.90;;;;;;5089646;28;20035;-59
2022/09/10 03:50:23;;;;;;;26.92;19.33;;;15.20;99.90;;;;;;5090016;28;20416;-56
2022/09/10 03:52:49;;;;;;;23.10;20.20;;;15.20;99.90;;;;;;5109487;28;20043;-56
2022/09/10 03:55:15;;;;;;;26.52;18.42;;;15.20;99.90;;;;;;5099710;28;20048;-59
2022/09/10 03:57:40;;;;;;;34.40;20.00;;;15.20;99.90;;;;;;5073698;28;20102;-55
2022/09/10 04:00:10;;;;;;;26.67;19.05;;;15.20;99.90;;;;;;5089580;28;20044;-57
2022/09/10 04:02:36;;;;;;;25.85;18.88;;;15.20;99.90;;;;;;5079077;28;20463;-56
2022/09/10 04:05:02;;;;;;;24.73;19.63;;;15.20;99.90;;;;;;5072985;28;20048;-55
2022/09/10 04:07:29;;;;;;;29.52;19.75;;;15.20;99.90;;;;;;5086868;28;20059;-57
2022/09/10 04:09:54;;;;;;;25.02;18.67;;;15.20;99.90;;;;;;5093976;28;20040;-54
2022/09/10 04:12:20;;;;;;;31.88;20.85;;;15.20;99.90;;;;;;5094023;28;20519;-56
2022/09/10 04:14:46;;;;;;;28.55;21.35;;;15.30;99.90;;;;;;5093390;28;20526;-58
2022/09/10 04:17:11;;;;;;;26.65;19.52;;;15.30;99.90;;;;;;5093079;28;20058;-59
2022/09/10 04:19:39;;;;;;;30.13;21.17;;;15.30;99.90;;;;;;5093845;28;20036;-54
2022/09/10 04:22:06;;;;;;;30.52;20.13;;;15.20;99.90;;;;;;5093331;28;20047;-55
2022/09/10 04:24:31;;;;;;;32.28;20.73;;;15.30;99.90;;;;;;5093234;28;20534;-55
2022/09/10 04:26:57;;;;;;;32.58;22.50;;;15.30;99.90;;;;;;5093376;28;20111;-57
2022/09/10 04:29:23;;;;;;;27.42;19.17;;;15.30;99.90;;;;;;5093108;28;20036;-54
2022/09/10 04:31:49;;;;;;;38.10;22.85;;;15.30;99.90;;;;;;5091489;28;20032;-54
2022/09/10 04:34:15;;;;;;;34.03;22.25;;;15.30;99.90;;;;;;5082103;28;20162;-55
2022/09/10 04:36:41;;;;;;;31.90;22.65;;;15.30;99.90;;;;;;5073169;28;20447;-57
2022/09/10 04:39:07;;;;;;;33.97;22.95;;;15.30;99.90;;;;;;5105656;28;20047;-59
2022/09/10 04:41:33;;;;;;;33.42;22.90;;;15.30;99.90;;;;;;5113223;28;20036;-58
2022/09/10 04:43:58;;;;;;;35.72;23.95;;;15.30;99.90;;;;;;5104326;28;20048;-58
2022/09/10 04:46:24;;;;;;;42.95;25.30;;;15.30;99.90;;;;;;5092333;28;20488;-57
2022/09/10 04:48:50;;;;;;;40.92;26.52;;;15.30;99.90;;;;;;5093935;28;20521;-56
2022/09/10 04:51:16;;;;;;;45.63;24.50;;;15.30;99.90;;;;;;5092899;28;20070;-56
2022/09/10 04:53:42;;;;;;;41.03;26.42;;;15.30;99.90;;;;;;5093526;28;20488;-57
2022/09/10 04:56:08;;;;;;;48.20;28.25;;;15.30;99.90;;;;;;5073435;28;20047;-57
2022/09/10 04:58:34;;;;;;;41.65;26.77;;;15.30;99.90;;;;;;5074643;28;20154;-56
2022/09/10 05:01:00;;;;;;;55.58;28.38;;;15.30;99.90;;;;;;5092087;28;20123;-57
2022/09/10 05:03:25;;;;;;;;;;;15.30;99.90;;;;;;5092986;28;20125;-57
2022/09/10 05:05:51;;;;;;;43.03;26.65;;;15.20;99.90;;;;;;5081442;28;19917;-58
2022/09/10 05:08:17;;;;;;;45.95;28.55;;;15.20;99.90;;;;;;5072197;28;20040;-56
2022/09/10 05:10:43;;;;;;;50.22;28.85;;;15.30;99.90;;;;;;5097500;28;20392;-57
2022/09/10 05:13:08;;;;;;;48.38;29.73;;;15.30;99.90;;;;;;5091791;28;20438;-56
2022/09/10 05:15:34;;;;;;;52.83;27.83;;;15.30;99.90;;;;;;5092092;28;20039;-56
2022/09/10 05:18:01;;;;;;;45.80;25.70;;;15.30;99.90;;;;;;5092297;28;20055;-57
2022/09/10 05:20:26;;;;;;;43.08;26.50;;;15.30;99.90;;;;;;5099214;28;20423;-56
2022/09/10 05:22:55;;;;;;;43.08;27.20;;;15.30;99.90;;;;;;5071623;28;20070;-57
2022/09/10 05:25:22;;;;;;;52.05;27.77;;;15.30;99.90;;;;;;5076301;28;20043;-57
2022/09/10 05:27:48;;;;;;;46.80;26.58;;;15.30;99.90;;;;;;5071883;28;20033;-59
2022/09/10 05:30:14;;;;;;;42.03;27.42;;;15.30;99.90;;;;;;5077431;28;20032;-59
2022/09/10 05:32:39;;;;;;;41.45;26.30;;;15.30;99.90;;;;;;5091979;28;20036;-59
2022/09/10 05:35:07;;;;;;;42.25;26.30;;;15.40;99.90;;;;;;5096015;28;20279;-58
2022/09/10 05:37:33;;;;;;;48.13;25.10;;;15.40;99.90;;;;;;5074976;28;20389;-56
2022/09/10 05:39:58;;;;;;;45.25;25.65;;;15.40;99.90;;;;;;5071482;28;20037;-58
2022/09/10 05:42:25;;;;;;;41.95;26.33;;;15.40;99.90;;;;;;5089012;28;20036;-57
2022/09/10 05:44:50;;;;;;;;;;;15.40;99.90;;;;;;5091229;28;20040;-60
2022/09/10 05:47:16;;;;;;;40.35;26.17;;;15.40;99.90;;;;;;5090764;28;19938;-58
2022/09/10 05:49:41;;;;;;;46.25;27.67;;;15.40;99.90;;;;;;5092016;28;20089;-56
2022/09/10 05:52:08;;;;;;;45.28;25.60;;;15.40;99.90;;;;;;5092004;28;20115;-57
2022/09/10 05:54:34;;;;;;;43.00;28.38;;;15.40;99.90;;;;;;5074467;28;20121;-54
2022/09/10 05:57:00;;;;;;;40.45;26.13;;;15.40;99.90;;;;;;5087322;28;20048;-56
2022/09/10 05:59:26;;;;;;;43.72;28.48;;;15.40;99.90;;;;;;5090918;28;20386;-56
2022/09/10 06:01:51;;;;;;;47.55;27.60;;;15.40;99.90;;;;;;5091171;28;20481;-54
2022/09/10 06:04:20;;;;;;;48.97;27.98;;;15.40;99.90;;;;;;5089260;28;20040;-58
2022/09/10 06:06:46;;;;;;;48.35;27.20;;;15.40;99.90;;;;;;5093369;28;20047;-54
2022/09/10 06:09:12;;;;;;;46.30;26.77;;;15.40;99.90;;;;;;5102485;28;20074;-58
2022/09/10 06:11:38;;;;;;;41.47;26.60;;;15.50;99.90;;;;;;5091543;28;20059;-57
2022/09/10 06:14:04;;;;;;;41.40;26.05;;;15.50;99.90;;;;;;5090416;28;20051;-57
2022/09/10 06:16:30;;;;;;;43.65;26.95;;;15.50;99.90;;;;;;5091002;28;20036;-58
2022/09/10 06:18:57;;;;;;;41.20;27.63;;;15.50;99.90;;;;;;5074441;28;20443;-58
2022/09/10 06:21:23;;;;;;;40.67;24.85;;;15.50;99.90;;;;;;5070683;28;20036;-57
2022/09/10 06:23:52;;;;;;;45.63;26.77;;;15.60;99.90;;;;;;5087311;28;20055;-56
2022/09/10 06:26:18;;;;;;;45.35;26.25;;;15.60;99.90;;;;;;5093889;28;20040;-57
2022/09/10 06:28:45;;;;;;;42.08;24.33;;;15.60;99.90;;;;;;5082976;28;20051;-56
2022/09/10 06:31:15;;;;;;;36.67;22.83;;;15.60;99.90;;;;;;5070459;28;20607;-58
2022/09/10 06:33:41;;;;;;;43.45;24.75;;;15.60;99.90;;;;;;5068686;28;20052;-55
2022/09/10 06:36:08;;;;;;;44.13;24.08;;;15.60;99.90;;;;;;5081755;28;20040;-58
2022/09/10 06:38:34;;;;;;;43.38;24.25;;;15.70;99.90;;;;;;5089571;28;20075;-57
2022/09/10 06:41:04;;;;;;;38.35;23.52;;;15.70;99.90;;;;;;5090133;28;20044;-58
2022/09/10 06:43:37;;;;;;;41.33;24.42;;;15.70;99.90;;;;;;5090006;28;20054;-57
2022/09/10 06:46:22;;;;;;;34.83;23.05;;;15.70;99.90;;;;;;5090564;28;20080;-58
2022/09/10 06:48:48;;;;;;;37.30;23.35;;;15.70;99.90;;;;;;5088830;28;20082;-58
2022/09/10 06:51:14;;;;;;;41.20;23.92;;;15.80;99.90;;;;;;5090436;28;20043;-60
2022/09/10 06:53:42;;;;;;;36.28;19.58;;;15.80;99.90;;;;;;5089567;28;20035;-60
2022/09/10 06:56:10;;;;;;;36.38;21.33;;;15.80;99.90;;;;;;5108953;28;20040;-60
2022/09/10 06:58:37;;;;;;;32.78;22.25;;;15.80;99.90;;;;;;5110720;28;20550;-58
2022/09/10 07:01:16;;;;;;;32.75;22.23;;;15.90;99.90;;;;;;5077445;28;20045;-58
2022/09/10 07:03:42;;;;;;;31.23;20.75;;;15.90;99.90;;;;;;5087529;28;20090;-57
2022/09/10 07:06:10;;;;;;;32.70;21.13;;;16.00;99.90;;;;;;5084847;28;20040;-54
2022/09/10 07:08:36;;;;;;;27.25;20.88;;;16.00;99.90;;;;;;5106594;28;20043;-54
2022/09/10 07:11:05;;;;;;;34.70;22.77;;;16.00;99.90;;;;;;5091041;28;20048;-55
2022/09/10 07:13:31;;;;;;;30.15;21.05;;;16.10;99.90;;;;;;5090117;28;20044;-54
2022/09/10 07:15:56;;;;;;;28.38;22.02;;;16.10;99.90;;;;;;5107201;28;20071;-56
2022/09/10 07:18:23;;;;;;;35.97;21.98;;;16.10;99.90;;;;;;5092630;28;20082;-56
2022/09/10 07:20:49;;;;;;;27.00;18.52;;;16.10;99.90;;;;;;5098520;28;20409;-54
2022/09/10 07:23:20;;;;;;;31.13;19.48;;;16.10;99.90;;;;;;5089657;28;20044;-54
2022/09/10 07:25:46;;;;;;;29.38;19.13;;;16.10;99.90;;;;;;5090251;28;20079;-57
2022/09/10 07:28:14;;;;;;;33.40;19.50;;;16.20;99.90;;;;;;5091638;28;20046;-58
2022/09/10 07:30:40;;;;;;;27.60;19.15;;;16.20;99.90;;;;;;5087089;28;20043;-57
2022/09/10 07:33:06;;;;;;;33.13;20.75;;;16.20;99.90;;;;;;5075782;28;20040;-55
2022/09/10 07:35:36;;;;;;;26.25;19.45;;;16.20;99.90;;;;;;5094450;28;20036;-55
2022/09/10 07:38:06;;;;;;;31.35;19.63;;;16.30;99.90;;;;;;5087635;28;20200;-58
2022/09/10 07:40:32;;;;;;;26.80;18.02;;;16.30;99.90;;;;;;5073643;28;20499;-58
2022/09/10 07:42:58;;;;;;;27.42;19.48;;;16.30;99.90;;;;;;5081347;28;20067;-57
2022/09/10 07:45:25;;;;;;;29.27;19.48;;;16.30;99.90;;;;;;5093708;28;20489;-57
2022/09/10 07:47:50;;;;;;;32.38;21.40;;;16.40;99.90;;;;;;5093569;28;20040;-57
2022/09/10 07:50:16;;;;;;;31.63;21.90;;;16.40;99.90;;;;;;5094116;28;20032;-56
2022/09/10 07:52:42;;;;;;;26.77;19.65;;;16.40;99.90;;;;;;5092729;28;20485;-58
2022/09/10 07:55:08;;;;;;;26.55;20.45;;;16.40;99.90;;;;;;5091281;28;20055;-56
2022/09/10 07:57:35;;;;;;;;;;;16.40;99.90;;;;;;5083642;28;20024;-59
2022/09/10 08:00:00;;;;;;;27.77;18.45;;;16.40;99.90;;;;;;5093211;28;19922;-58
2022/09/10 08:02:26;;;;;;;30.35;18.73;;;16.40;99.90;;;;;;5092474;28;20031;-59
2022/09/10 08:04:51;;;;;;;28.70;19.75;;;16.40;99.90;;;;;;5090452;28;20040;-63
2022/09/10 08:07:18;;;;;;;23.35;20.60;;;16.50;99.90;;;;;;5073840;28;20038;-63
2022/09/10 08:09:43;;;;;;;;;;;16.50;99.90;;;;;;5094863;27;20046;-62
2022/09/10 08:12:09;;;;;;;27.65;19.35;;;16.50;99.90;;;;;;5089458;28;19916;-63
2022/09/10 08:14:36;;;;;;;27.45;19.58;;;16.60;99.90;;;;;;5099492;28;20089;-63
2022/09/10 08:17:03;;;;;;;26.20;19.73;;;16.60;99.90;;;;;;5091434;28;20047;-56
2022/09/10 08:19:28;;;;;;;;;;;16.70;99.90;;;;;;5094624;28;20035;-58
2022/09/10 08:21:55;;;;;;;26.02;19.42;;;16.70;99.90;;;;;;5092105;28;19916;-59
2022/09/10 08:24:21;;;;;;;28.30;19.10;;;16.80;99.90;;;;;;5104430;28;20039;-59
2022/09/10 08:26:47;;;;;;;26.92;19.92;;;16.80;99.90;;;;;;5078095;28;20048;-57
2022/09/10 08:29:12;;;;;;;28.13;18.70;;;16.90;99.90;;;;;;5078722;28;20118;-63
2022/09/10 08:31:38;;;;;;;25.65;17.95;;;16.90;99.90;;;;;;5092195;28;20812;-63
2022/09/10 08:34:04;;;;;;;25.13;18.48;;;17.10;99.90;;;;;;5093740;28;20162;-64
2022/09/10 08:36:30;;;;;;;21.95;17.70;;;17.10;99.90;;;;;;5093027;28;20051;-60
2022/09/10 08:38:55;;;;;;;25.38;17.15;;;17.20;99.90;;;;;;5076995;28;20040;-62
2022/09/10 08:41:25;;;;;;;24.55;18.65;;;17.20;99.90;;;;;;5086751;28;20033;-59
2022/09/10 08:44:08;;;;;;;20.80;16.65;;;17.20;99.90;;;;;;5070421;28;20111;-61
2022/09/10 08:46:56;;;;;;;22.95;16.50;;;17.20;99.90;;;;;;5087995;28;20072;-59
2022/09/10 08:49:41;;;;;;;24.42;17.05;;;17.20;99.90;;;;;;5077210;28;20036;-60
2022/09/10 08:52:32;;;;;;;21.20;17.50;;;17.30;99.90;;;;;;5073371;28;20045;-60
2022/09/10 08:55:17;;;;;;;18.67;16.25;;;17.30;99.90;;;;;;5084084;28;20036;-61
2022/09/10 08:57:50;;;;;;;22.17;17.25;;;17.30;99.90;;;;;;5112972;28;20043;-58
2022/09/10 09:00:22;;;;;;;31.40;20.35;;;17.40;99.90;;;;;;5111169;28;20042;-57
2022/09/10 09:03:04;;;;;;;22.10;18.50;;;17.40;99.90;;;;;;5086687;28;20052;-57
2022/09/10 09:05:48;;;;;;;22.40;16.95;;;17.40;99.90;;;;;;5077228;28;20085;-57
2022/09/10 09:08:21;;;;;;;18.83;16.63;;;17.50;99.90;;;;;;5077307;28;20036;-62
2022/09/10 09:11:06;;;;;;;17.70;14.63;;;17.60;99.90;;;;;;5093279;28;20055;-62
2022/09/10 09:13:50;;;;;;;17.73;14.00;;;17.70;99.90;;;;;;5082988;28;20149;-56
2022/09/10 09:16:25;;;;;;;14.23;11.90;;;17.90;99.90;;;;;;5093923;28;20389;-54
2022/09/10 09:19:22;;;;;;;9.43;8.48;;;18.00;99.90;;;;;;5098122;28;20051;-54
2022/09/10 09:22:00;;;;;;;12.15;11.10;;;18.20;99.90;;;;;;5092248;28;20032;-53
2022/09/10 09:24:39;;;;;;;13.90;10.98;;;18.20;99.90;;;;;;5090779;28;20048;-55
2022/09/10 09:27:09;;;;;;;12.85;10.07;;;18.30;99.90;;;;;;5101101;28;20057;-54
2022/09/10 09:29:49;;;;;;;15.70;10.27;;;18.30;99.90;;;;;;5091518;28;20054;-54
2022/09/10 09:32:19;;;;;;;13.65;11.98;;;18.30;99.90;;;;;;5092927;28;20103;-54
2022/09/10 09:34:58;;;;;;;10.50;9.35;;;18.40;99.90;;;;;;5089540;28;20040;-56
2022/09/10 09:37:28;;;;;;;14.30;9.68;;;18.40;99.90;;;;;;5095061;28;20119;-53
2022/09/10 09:40:27;;;;;;;11.52;8.82;;;18.50;99.90;;;;;;5112307;28;20040;-57
2022/09/10 09:43:08;;;;;;;11.07;7.43;;;18.60;99.90;;;;;;5109880;28;20074;-57
2022/09/10 09:45:41;;;;;;;10.40;8.73;;;18.60;99.90;;;;;;5075749;28;20044;-60
2022/09/10 09:48:11;;;;;;;8.00;7.10;;;18.70;99.90;;;;;;5079858;28;20036;-60
2022/09/10 09:50:40;;;;;;;11.43;8.23;;;18.70;99.90;;;;;;5091409;28;20036;-60
2022/09/10 09:53:08;;;;;;;6.82;5.10;;;18.80;99.90;;;;;;5092251;28;20128;-59
2022/09/10 09:55:39;;;;;;;8.80;6.32;;;18.90;99.90;;;;;;5090796;28;20043;-58
2022/09/10 09:58:19;;;;;;;9.55;8.63;;;19.00;99.90;;;;;;5095040;28;20043;-59
2022/09/10 10:01:07;;;;;;;12.68;9.60;;;19.00;99.90;;;;;;5093532;28;20032;-59
2022/09/10 10:03:49;;;;;;;10.60;7.18;;;19.20;99.90;;;;;;5068192;28;20389;-54
2022/09/10 10:06:15;;;;;;;9.82;8.52;;;19.20;99.90;;;;;;5077837;28;20093;-53
2022/09/10 10:08:50;;;;;;;12.40;9.23;;;19.30;99.90;;;;;;5091406;28;20428;-53
2022/09/10 10:11:19;;;;;;;10.60;8.35;;;19.30;99.90;;;;;;5090915;28;20112;-56
2022/09/10 10:13:46;;;;;;;7.82;7.15;;;19.40;99.90;;;;;;5092214;28;20515;-55
2022/09/10 10:16:34;;;;;;;7.03;6.30;;;19.40;99.90;;;;;;5082561;28;20040;-56
2022/09/10 10:19:00;;;;;;;7.93;7.13;;;19.50;99.90;;;;;;5071110;28;20047;-54
2022/09/10 10:21:30;;;;;;;8.07;7.35;;;19.50;99.90;;;;;;5071102;28;20437;-53
2022/09/10 10:23:55;;;;;;;7.07;6.35;;;19.50;99.90;;;;;;5099934;28;20393;-54
2022/09/10 10:26:33;;;;;;;6.63;5.88;;;19.50;99.90;;;;;;5103754;28;20035;-53
2022/09/10 10:29:02;;;;;;;7.20;6.22;;;19.50;99.90;;;;;;5090601;28;20047;-57
2022/09/10 10:31:38;;;;;;;5.38;4.88;;;19.60;99.90;;;;;;5090948;28;20516;-54
2022/09/10 10:34:21;;;;;;;7.95;6.00;;;19.60;99.90;;;;;;5090099;28;20063;-53
2022/09/10 10:37:13;;;;;;;9.73;6.32;;;19.70;99.90;;;;;;5080607;28;20413;-55
2022/09/10 10:40:08;;;;;;;11.60;6.15;;;19.90;99.90;;;;;;5080722;28;20089;-54
2022/09/10 10:42:55;;;;;;;8.48;6.15;;;20.10;99.90;;;;;;5070265;28;20393;-53
2022/09/10 10:45:54;;;;;;;7.35;5.90;;;20.20;99.90;;;;;;5086873;28;20046;-52
2022/09/10 10:48:54;;;;;;;10.45;5.97;;;20.20;99.90;;;;;;5089646;28;20047;-58
2022/09/10 10:51:57;;;;;;;6.65;5.68;;;20.30;99.90;;;;;;5090461;28;20078;-57
2022/09/10 10:54:49;;;;;;;13.07;6.55;;;20.30;99.90;;;;;;5097134;28;20043;-58
2022/09/10 10:57:44;;;;;;;8.55;5.40;;;20.30;99.90;;;;;;5095026;28;20493;-59
2022/09/10 11:00:14;;;;;;;8.20;6.03;;;20.20;99.90;;;;;;5098831;28;20035;-59
2022/09/10 11:03:04;;;;;;;6.13;4.93;;;20.20;99.90;;;;;;5089272;28;20048;-61
2022/09/10 11:05:45;;;;;;;10.15;5.95;;;20.30;99.90;;;;;;5093355;28;20088;-59
2022/09/10 11:08:14;;;;;;;5.35;4.72;;;20.30;99.90;;;;;;5072084;28;20079;-60
2022/09/10 11:11:07;;;;;;;9.40;5.70;;;20.30;99.90;;;;;;5089337;28;20040;-58
2022/09/10 11:13:50;;;;;;;4.70;4.10;;;20.40;99.90;;;;;;5083624;28;20056;-58
2022/09/10 11:16:33;;;;;;;5.50;5.05;;;20.30;99.90;;;;;;5090355;28;20533;-58
2022/09/10 11:19:12;;;;;;;5.35;4.53;;;20.30;99.90;;;;;;5076924;28;20055;-59
2022/09/10 11:21:49;;;;;;;6.78;5.75;;;20.30;99.90;;;;;;5086893;28;20452;-59
2022/09/10 11:24:44;;;;;;;13.82;6.63;;;20.30;99.90;;;;;;5077672;28;20389;-58
2022/09/10 11:27:40;;;;;;;5.63;4.93;;;20.40;99.90;;;;;;5081363;28;20044;-60
2022/09/10 11:30:15;;;;;;;5.70;5.18;;;20.40;99.90;;;;;;5069289;28;20059;-61
2022/09/10 11:32:54;;;;;;;6.75;5.45;;;20.40;99.90;;;;;;5083456;28;20038;-60
2022/09/10 11:35:39;;;;;;;5.03;4.07;;;20.40;99.90;;;;;;5106792;28;20379;-56
2022/09/10 11:38:13;;;;;;;7.47;5.03;;;20.40;99.90;;;;;;5107365;28;20031;-56
2022/09/10 11:41:18;;;;;;;10.27;5.13;;;20.40;99.90;;;;;;5070061;28;20036;-55
2022/09/10 11:44:00;;;;;;;6.22;5.38;;;20.50;99.90;;;;;;5077762;28;20055;-51
2022/09/10 11:46:34;;;;;;;8.07;4.90;;;20.60;99.90;;;;;;5089833;28;20519;-52
2022/09/10 11:49:21;;;;;;;13.80;5.10;;;20.60;99.90;;;;;;5089100;28;20062;-54
2022/09/10 11:51:48;;;;;;;12.60;6.05;;;20.60;99.90;;;;;;5070024;28;20056;-53
2022/09/10 11:54:17;;;;;;;10.27;5.40;;;20.60;99.90;;;;;;5057828;28;20625;-52
2022/09/10 11:57:14;;;;;;;5.75;4.95;;;20.50;99.90;;;;;;5089880;28;20036;-53
2022/09/10 12:00:15;;;;;;;5.30;4.37;;;20.40;99.90;;;;;;5083329;28;20466;-56
2022/09/10 12:03:10;;;;;;;6.47;4.55;;;20.40;99.90;;;;;;5089457;28;20040;-54
2022/09/10 12:05:53;;;;;;;6.95;4.68;;;20.40;99.90;;;;;;5069871;28;20076;-53
2022/09/10 12:08:40;;;;;;;6.22;5.63;;;20.30;99.90;;;;;;5069416;28;20457;-52
2022/09/10 12:11:15;;;;;;;;;;;20.30;99.90;;;;;;5081758;28;20047;-52
2022/09/10 12:13:44;;;;;;;4.47;4.00;;;20.40;99.90;;;;;;5089444;28;20288;-52
2022/09/10 12:16:22;;;;;;;5.65;4.00;;;20.40;99.90;;;;;;5104465;28;20085;-53
2022/09/10 12:18:51;;;;;;;5.35;3.25;;;20.50;99.90;;;;;;5091373;28;20044;-52
2022/09/10 12:21:41;;;;;;;4.07;3.67;;;20.60;99.90;;;;;;5079169;28;20057;-52
2022/09/10 12:24:35;;;;;;;3.95;3.40;;;20.70;99.90;;;;;;5072285;28;20040;-58
2022/09/10 12:27:06;;;;;;;5.90;3.78;;;20.80;99.90;;;;;;5072516;28;20048;-56
2022/09/10 12:29:39;;;;;;;5.30;4.05;;;20.90;99.90;;;;;;5072772;28;20107;-54
2022/09/10 12:32:07;;;;;;;7.15;5.05;;;21.00;99.90;;;;;;5078157;28;20473;-58
2022/09/10 12:34:33;;;;;;;4.97;3.97;;;21.10;99.90;;;;;;5076642;28;20048;-57
2022/09/10 12:36:58;;;;;;;3.75;3.40;;;21.00;99.90;;;;;;5079690;28;20573;-53
2022/09/10 12:39:28;;;;;;;;;;;21.00;99.90;;;;;;5091959;28;20123;-54
2022/09/10 12:41:59;;;;;;;9.13;3.80;;;21.10;99.90;;;;;;5090844;28;19923;-53
2022/09/10 12:44:27;;;;;;;4.07;3.08;;;21.10;99.90;;;;;;5093235;27;20041;-53
2022/09/10 12:47:14;;;;;;;5.53;3.13;;;21.20;99.90;;;;;;5072515;28;20033;-58
2022/09/10 12:49:50;;;;;;;4.60;3.10;;;21.20;99.90;;;;;;5072104;28;20044;-58
2022/09/10 12:52:30;;;;;;;4.90;3.10;;;21.40;99.90;;;;;;5072612;28;20036;-59
2022/09/10 12:55:20;;;;;;;3.25;2.65;;;21.50;99.90;;;;;;5071761;28;20365;-54
2022/09/10 12:58:01;;;;;;;2.35;1.90;;;21.60;99.90;;;;;;5077489;28;20040;-54
2022/09/10 13:00:53;;;;;;;9.23;2.28;;;21.70;99.90;;;;;;5092258;28;20048;-57